sensor_id;sensor_type;location;lat;lon;timestamp;P1;durP1;ratioP1;P2;durP2;ratioP2
6860;SDS011;3469;47.060;15.460;2022-10-16T00:01:36;57.63;;;34.60;;
6860;SDS011;3469;47.060;15.460;2022-10-16T00:04:05;64.13;;;38.07;;
6860;SDS011;3469;47.060;15.460;2022-10-16T00:06:34;49.57;;;33.77;;
6860;SDS011;3469;47.060;15.460;2022-10-16T00:09:03;55.67;;;36.63;;
6860;SDS011;3469;47.060;15.460;2022-10-16T00:11:35;60.43;;;36.40;;
6860;SDS011;3469;47.060;15.460;2022-10-16T00:14:07;58.97;;;35.33;;
6860;SDS011;3469;47.060;15.460;2022-10-16T00:16:42;54.63;;;36.37;;
6860;SDS011;3469;47.060;15.460;2022-10-16T00:19:13;62.57;;;35.90;;
6860;SDS011;3469;47.060;15.460;2022-10-16T00:21:43;55.40;;;36.03;;
6860;SDS011;3469;47.060;15.460;2022-10-16T00:24:30;57.70;;;33.70;;
6860;SDS011;3469;47.060;15.460;2022-10-16T00:26:59;61.90;;;35.80;;
6860;SDS011;3469;47.060;15.460;2022-10-16T00:29:27;56.20;;;34.10;;
6860;SDS011;3469;47.060;15.460;2022-10-16T00:31:56;56.60;;;34.63;;
6860;SDS011;3469;47.060;15.460;2022-10-16T00:34:24;58.27;;;35.07;;
6860;SDS011;3469;47.060;15.460;2022-10-16T00:36:54;60.97;;;36.80;;
6860;SDS011;3469;47.060;15.460;2022-10-16T00:39:23;55.90;;;36.47;;
6860;SDS011;3469;47.060;15.460;2022-10-16T00:41:52;58.87;;;35.27;;
6860;SDS011;3469;47.060;15.460;2022-10-16T00:47:12;55.80;;;36.73;;
6860;SDS011;3469;47.060;15.460;2022-10-16T00:49:43;56.90;;;35.27;;
6860;SDS011;3469;47.060;15.460;2022-10-16T00:52:13;50.43;;;34.37;;
6860;SDS011;3469;47.060;15.460;2022-10-16T00:54:42;63.63;;;33.27;;
6860;SDS011;3469;47.060;15.460;2022-10-16T00:57:11;53.33;;;33.03;;
6860;SDS011;3469;47.060;15.460;2022-10-16T00:59:40;57.80;;;34.50;;
6860;SDS011;3469;47.060;15.460;2022-10-16T01:02:10;55.90;;;34.30;;
6860;SDS011;3469;47.060;15.460;2022-10-16T01:04:43;51.50;;;33.50;;
6860;SDS011;3469;47.060;15.460;2022-10-16T01:07:16;53.73;;;35.17;;
6860;SDS011;3469;47.060;15.460;2022-10-16T01:09:55;48.40;;;32.00;;
6860;SDS011;3469;47.060;15.460;2022-10-16T01:12:32;57.97;;;35.17;;
6860;SDS011;3469;47.060;15.460;2022-10-16T01:15:13;52.53;;;31.60;;
6860;SDS011;3469;47.060;15.460;2022-10-16T01:17:47;53.57;;;34.60;;
6860;SDS011;3469;47.060;15.460;2022-10-16T01:20:21;50.50;;;33.60;;
6860;SDS011;3469;47.060;15.460;2022-10-16T01:25:54;49.70;;;31.50;;
6860;SDS011;3469;47.060;15.460;2022-10-16T01:28:32;57.40;;;32.93;;
6860;SDS011;3469;47.060;15.460;2022-10-16T01:31:02;45.30;;;31.43;;
6860;SDS011;3469;47.060;15.460;2022-10-16T01:33:33;57.37;;;33.20;;
6860;SDS011;3469;47.060;15.460;2022-10-16T01:36:06;53.60;;;32.90;;
6860;SDS011;3469;47.060;15.460;2022-10-16T01:38:38;50.40;;;32.27;;
6860;SDS011;3469;47.060;15.460;2022-10-16T01:41:09;55.20;;;33.37;;
6860;SDS011;3469;47.060;15.460;2022-10-16T01:43:40;49.13;;;33.13;;
6860;SDS011;3469;47.060;15.460;2022-10-16T01:46:10;51.40;;;29.77;;
6860;SDS011;3469;47.060;15.460;2022-10-16T01:48:41;47.73;;;30.93;;
6860;SDS011;3469;47.060;15.460;2022-10-16T01:51:11;52.30;;;31.17;;
6860;SDS011;3469;47.060;15.460;2022-10-16T01:53:40;50.10;;;30.67;;
6860;SDS011;3469;47.060;15.460;2022-10-16T01:56:11;45.17;;;30.93;;
6860;SDS011;3469;47.060;15.460;2022-10-16T01:58:42;49.90;;;31.93;;
6860;SDS011;3469;47.060;15.460;2022-10-16T02:01:12;50.73;;;31.33;;
6860;SDS011;3469;47.060;15.460;2022-10-16T02:03:43;54.63;;;30.23;;
6860;SDS011;3469;47.060;15.460;2022-10-16T02:06:12;50.50;;;32.43;;
6860;SDS011;3469;47.060;15.460;2022-10-16T02:08:41;52.00;;;31.73;;
6860;SDS011;3469;47.060;15.460;2022-10-16T02:11:10;45.13;;;27.97;;
6860;SDS011;3469;47.060;15.460;2022-10-16T02:13:40;48.70;;;30.73;;
6860;SDS011;3469;47.060;15.460;2022-10-16T02:16:13;49.33;;;31.60;;
6860;SDS011;3469;47.060;15.460;2022-10-16T02:18:42;50.80;;;32.87;;
6860;SDS011;3469;47.060;15.460;2022-10-16T02:21:13;56.97;;;31.33;;
6860;SDS011;3469;47.060;15.460;2022-10-16T02:23:45;50.03;;;31.37;;
6860;SDS011;3469;47.060;15.460;2022-10-16T02:26:21;50.00;;;29.97;;
6860;SDS011;3469;47.060;15.460;2022-10-16T02:28:56;48.30;;;31.47;;
6860;SDS011;3469;47.060;15.460;2022-10-16T02:31:29;49.90;;;33.77;;
6860;SDS011;3469;47.060;15.460;2022-10-16T02:34:01;53.00;;;32.17;;
6860;SDS011;3469;47.060;15.460;2022-10-16T02:36:31;51.43;;;32.47;;
6860;SDS011;3469;47.060;15.460;2022-10-16T02:39:00;54.80;;;36.80;;
6860;SDS011;3469;47.060;15.460;2022-10-16T02:41:30;52.53;;;35.87;;
6860;SDS011;3469;47.060;15.460;2022-10-16T02:44:00;56.30;;;37.80;;
6860;SDS011;3469;47.060;15.460;2022-10-16T02:46:28;51.17;;;34.30;;
6860;SDS011;3469;47.060;15.460;2022-10-16T02:48:57;58.30;;;35.87;;
6860;SDS011;3469;47.060;15.460;2022-10-16T02:51:25;72.57;;;35.67;;
6860;SDS011;3469;47.060;15.460;2022-10-16T02:53:53;119.03;;;33.70;;
6860;SDS011;3469;47.060;15.460;2022-10-16T02:56:22;67.07;;;32.50;;
6860;SDS011;3469;47.060;15.460;2022-10-16T02:58:50;62.27;;;33.53;;
6860;SDS011;3469;47.060;15.460;2022-10-16T03:01:20;102.80;;;37.60;;
6860;SDS011;3469;47.060;15.460;2022-10-16T03:03:49;69.80;;;34.07;;
6860;SDS011;3469;47.060;15.460;2022-10-16T03:06:17;59.70;;;34.63;;
6860;SDS011;3469;47.060;15.460;2022-10-16T03:08:45;76.23;;;35.37;;
6860;SDS011;3469;47.060;15.460;2022-10-16T03:11:14;92.63;;;36.17;;
6860;SDS011;3469;47.060;15.460;2022-10-16T03:13:45;102.10;;;38.60;;
6860;SDS011;3469;47.060;15.460;2022-10-16T03:16:13;168.93;;;34.90;;
6860;SDS011;3469;47.060;15.460;2022-10-16T03:18:43;121.60;;;36.30;;
6860;SDS011;3469;47.060;15.460;2022-10-16T03:21:13;58.90;;;35.23;;
6860;SDS011;3469;47.060;15.460;2022-10-16T03:23:42;62.03;;;35.93;;
6860;SDS011;3469;47.060;15.460;2022-10-16T03:26:14;66.10;;;35.57;;
6860;SDS011;3469;47.060;15.460;2022-10-16T03:28:42;53.60;;;34.83;;
6860;SDS011;3469;47.060;15.460;2022-10-16T03:31:11;53.07;;;34.57;;
6860;SDS011;3469;47.060;15.460;2022-10-16T03:33:39;49.97;;;31.93;;
6860;SDS011;3469;47.060;15.460;2022-10-16T03:36:11;54.87;;;34.50;;
6860;SDS011;3469;47.060;15.460;2022-10-16T03:38:39;56.20;;;35.53;;
6860;SDS011;3469;47.060;15.460;2022-10-16T03:41:07;49.70;;;30.87;;
6860;SDS011;3469;47.060;15.460;2022-10-16T03:43:36;55.87;;;35.30;;
6860;SDS011;3469;47.060;15.460;2022-10-16T03:46:04;53.73;;;33.60;;
6860;SDS011;3469;47.060;15.460;2022-10-16T03:48:33;56.13;;;35.10;;
6860;SDS011;3469;47.060;15.460;2022-10-16T03:51:01;50.43;;;31.73;;
6860;SDS011;3469;47.060;15.460;2022-10-16T03:53:31;58.10;;;32.67;;
6860;SDS011;3469;47.060;15.460;2022-10-16T03:55:59;51.93;;;32.10;;
6860;SDS011;3469;47.060;15.460;2022-10-16T03:58:28;52.03;;;32.47;;
6860;SDS011;3469;47.060;15.460;2022-10-16T04:00:56;54.27;;;32.10;;
6860;SDS011;3469;47.060;15.460;2022-10-16T04:03:25;46.87;;;30.77;;
6860;SDS011;3469;47.060;15.460;2022-10-16T04:05:53;51.00;;;32.70;;
6860;SDS011;3469;47.060;15.460;2022-10-16T04:08:22;56.13;;;32.10;;
6860;SDS011;3469;47.060;15.460;2022-10-16T04:10:54;46.87;;;29.23;;
6860;SDS011;3469;47.060;15.460;2022-10-16T04:13:22;46.83;;;30.67;;
6860;SDS011;3469;47.060;15.460;2022-10-16T04:15:51;41.27;;;28.90;;
6860;SDS011;3469;47.060;15.460;2022-10-16T04:18:21;47.07;;;29.50;;
6860;SDS011;3469;47.060;15.460;2022-10-16T04:20:50;43.87;;;28.70;;
6860;SDS011;3469;47.060;15.460;2022-10-16T04:23:18;46.17;;;28.97;;
6860;SDS011;3469;47.060;15.460;2022-10-16T04:25:47;45.97;;;30.60;;
6860;SDS011;3469;47.060;15.460;2022-10-16T04:28:17;43.33;;;29.20;;
6860;SDS011;3469;47.060;15.460;2022-10-16T04:30:45;52.00;;;31.47;;
6860;SDS011;3469;47.060;15.460;2022-10-16T04:33:14;42.93;;;30.27;;
6860;SDS011;3469;47.060;15.460;2022-10-16T04:35:43;51.53;;;32.03;;
6860;SDS011;3469;47.060;15.460;2022-10-16T04:38:11;52.10;;;30.80;;
6860;SDS011;3469;47.060;15.460;2022-10-16T04:40:41;53.73;;;35.10;;
6860;SDS011;3469;47.060;15.460;2022-10-16T04:43:10;53.23;;;32.07;;
6860;SDS011;3469;47.060;15.460;2022-10-16T04:45:40;47.03;;;32.43;;
6860;SDS011;3469;47.060;15.460;2022-10-16T04:48:08;46.80;;;31.87;;
6860;SDS011;3469;47.060;15.460;2022-10-16T04:50:43;46.50;;;30.27;;
6860;SDS011;3469;47.060;15.460;2022-10-16T04:53:11;52.47;;;32.40;;
6860;SDS011;3469;47.060;15.460;2022-10-16T04:55:40;52.10;;;32.37;;
6860;SDS011;3469;47.060;15.460;2022-10-16T04:58:09;54.67;;;33.27;;
6860;SDS011;3469;47.060;15.460;2022-10-16T05:00:40;51.63;;;32.60;;
6860;SDS011;3469;47.060;15.460;2022-10-16T05:03:08;51.33;;;34.37;;
6860;SDS011;3469;47.060;15.460;2022-10-16T05:05:41;84.67;;;36.83;;
6860;SDS011;3469;47.060;15.460;2022-10-16T05:08:10;61.33;;;33.43;;
6860;SDS011;3469;47.060;15.460;2022-10-16T05:10:43;84.40;;;32.67;;
6860;SDS011;3469;47.060;15.460;2022-10-16T05:13:14;71.97;;;32.90;;
6860;SDS011;3469;47.060;15.460;2022-10-16T05:15:47;56.87;;;30.87;;
6860;SDS011;3469;47.060;15.460;2022-10-16T05:18:16;85.80;;;33.83;;
6860;SDS011;3469;47.060;15.460;2022-10-16T05:20:46;78.87;;;32.83;;
6860;SDS011;3469;47.060;15.460;2022-10-16T05:23:24;64.13;;;31.57;;
6860;SDS011;3469;47.060;15.460;2022-10-16T05:25:56;61.43;;;30.57;;
6860;SDS011;3469;47.060;15.460;2022-10-16T05:28:44;47.10;;;29.80;;
6860;SDS011;3469;47.060;15.460;2022-10-16T05:31:20;53.23;;;30.60;;
6860;SDS011;3469;47.060;15.460;2022-10-16T05:33:57;45.87;;;30.37;;
6860;SDS011;3469;47.060;15.460;2022-10-16T05:36:27;39.60;;;27.83;;
6860;SDS011;3469;47.060;15.460;2022-10-16T05:38:56;47.07;;;28.77;;
6860;SDS011;3469;47.060;15.460;2022-10-16T05:41:24;54.23;;;30.27;;
6860;SDS011;3469;47.060;15.460;2022-10-16T05:43:55;42.33;;;30.07;;
6860;SDS011;3469;47.060;15.460;2022-10-16T05:46:29;38.47;;;27.73;;
6860;SDS011;3469;47.060;15.460;2022-10-16T05:48:58;39.50;;;27.47;;
6860;SDS011;3469;47.060;15.460;2022-10-16T05:51:27;44.07;;;29.93;;
6860;SDS011;3469;47.060;15.460;2022-10-16T05:53:58;50.13;;;28.67;;
6860;SDS011;3469;47.060;15.460;2022-10-16T05:56:26;55.57;;;28.87;;
6860;SDS011;3469;47.060;15.460;2022-10-16T05:58:55;40.67;;;29.17;;
6860;SDS011;3469;47.060;15.460;2022-10-16T06:01:38;47.90;;;26.20;;
6860;SDS011;3469;47.060;15.460;2022-10-16T06:04:10;46.83;;;27.80;;
6860;SDS011;3469;47.060;15.460;2022-10-16T06:06:39;83.50;;;25.33;;
6860;SDS011;3469;47.060;15.460;2022-10-16T06:09:08;39.80;;;27.97;;
6860;SDS011;3469;47.060;15.460;2022-10-16T06:11:37;34.50;;;23.17;;
6860;SDS011;3469;47.060;15.460;2022-10-16T06:14:05;34.13;;;23.50;;
6860;SDS011;3469;47.060;15.460;2022-10-16T06:16:44;34.90;;;25.33;;
6860;SDS011;3469;47.060;15.460;2022-10-16T06:19:28;55.23;;;24.60;;
6860;SDS011;3469;47.060;15.460;2022-10-16T06:21:58;70.70;;;26.00;;
6860;SDS011;3469;47.060;15.460;2022-10-16T06:24:26;62.00;;;28.27;;
6860;SDS011;3469;47.060;15.460;2022-10-16T06:26:59;42.20;;;29.30;;
6860;SDS011;3469;47.060;15.460;2022-10-16T06:29:27;50.83;;;28.23;;
6860;SDS011;3469;47.060;15.460;2022-10-16T06:31:57;54.93;;;28.10;;
6860;SDS011;3469;47.060;15.460;2022-10-16T06:34:26;48.47;;;26.40;;
6860;SDS011;3469;47.060;15.460;2022-10-16T06:36:57;50.63;;;28.90;;
6860;SDS011;3469;47.060;15.460;2022-10-16T06:39:25;54.67;;;30.10;;
6860;SDS011;3469;47.060;15.460;2022-10-16T06:41:56;40.90;;;26.90;;
6860;SDS011;3469;47.060;15.460;2022-10-16T06:44:37;42.40;;;28.70;;
6860;SDS011;3469;47.060;15.460;2022-10-16T06:47:36;44.70;;;27.53;;
6860;SDS011;3469;47.060;15.460;2022-10-16T06:50:10;35.87;;;25.13;;
6860;SDS011;3469;47.060;15.460;2022-10-16T06:52:45;45.27;;;26.60;;
6860;SDS011;3469;47.060;15.460;2022-10-16T06:55:14;39.47;;;27.87;;
6860;SDS011;3469;47.060;15.460;2022-10-16T06:57:43;42.50;;;29.00;;
6860;SDS011;3469;47.060;15.460;2022-10-16T07:00:15;41.60;;;29.00;;
6860;SDS011;3469;47.060;15.460;2022-10-16T07:02:47;49.37;;;32.50;;
6860;SDS011;3469;47.060;15.460;2022-10-16T07:05:16;45.40;;;31.90;;
6860;SDS011;3469;47.060;15.460;2022-10-16T07:07:53;46.73;;;30.87;;
6860;SDS011;3469;47.060;15.460;2022-10-16T07:10:21;45.33;;;30.37;;
6860;SDS011;3469;47.060;15.460;2022-10-16T07:12:53;39.53;;;29.40;;
6860;SDS011;3469;47.060;15.460;2022-10-16T07:15:21;46.83;;;31.80;;
6860;SDS011;3469;47.060;15.460;2022-10-16T07:17:52;50.43;;;34.33;;
6860;SDS011;3469;47.060;15.460;2022-10-16T07:20:20;44.43;;;31.33;;
6860;SDS011;3469;47.060;15.460;2022-10-16T07:22:49;51.17;;;34.93;;
6860;SDS011;3469;47.060;15.460;2022-10-16T07:25:17;48.23;;;33.93;;
6860;SDS011;3469;47.060;15.460;2022-10-16T07:27:46;53.80;;;36.20;;
6860;SDS011;3469;47.060;15.460;2022-10-16T07:30:14;51.37;;;33.43;;
6860;SDS011;3469;47.060;15.460;2022-10-16T07:32:43;50.87;;;33.57;;
6860;SDS011;3469;47.060;15.460;2022-10-16T07:35:13;49.30;;;35.17;;
6860;SDS011;3469;47.060;15.460;2022-10-16T07:37:43;49.13;;;33.87;;
6860;SDS011;3469;47.060;15.460;2022-10-16T07:40:12;51.17;;;35.83;;
6860;SDS011;3469;47.060;15.460;2022-10-16T07:42:41;55.93;;;38.10;;
6860;SDS011;3469;47.060;15.460;2022-10-16T07:45:09;56.13;;;35.47;;
6860;SDS011;3469;47.060;15.460;2022-10-16T07:47:38;63.37;;;37.07;;
6860;SDS011;3469;47.060;15.460;2022-10-16T08:14:41;33.97;;;29.23;;
6860;SDS011;3469;47.060;15.460;2022-10-16T08:17:13;33.13;;;27.97;;
6860;SDS011;3469;47.060;15.460;2022-10-16T08:19:44;33.83;;;26.70;;
6860;SDS011;3469;47.060;15.460;2022-10-16T08:22:12;30.93;;;27.17;;
6860;SDS011;3469;47.060;15.460;2022-10-16T08:24:41;28.23;;;24.10;;
6860;SDS011;3469;47.060;15.460;2022-10-16T08:27:10;31.40;;;26.23;;
6860;SDS011;3469;47.060;15.460;2022-10-16T08:29:38;34.57;;;28.27;;
6860;SDS011;3469;47.060;15.460;2022-10-16T08:32:08;31.47;;;26.10;;
6860;SDS011;3469;47.060;15.460;2022-10-16T08:34:36;31.37;;;27.27;;
6860;SDS011;3469;47.060;15.460;2022-10-16T08:37:04;30.90;;;26.53;;
6860;SDS011;3469;47.060;15.460;2022-10-16T08:39:38;27.83;;;24.73;;
6860;SDS011;3469;47.060;15.460;2022-10-16T08:42:10;30.80;;;26.90;;
6860;SDS011;3469;47.060;15.460;2022-10-16T08:47:56;32.60;;;26.30;;
6860;SDS011;3469;47.060;15.460;2022-10-16T08:50:50;34.13;;;28.53;;
6860;SDS011;3469;47.060;15.460;2022-10-16T08:53:40;29.43;;;24.80;;
6860;SDS011;3469;47.060;15.460;2022-10-16T08:57:07;30.93;;;27.00;;
6860;SDS011;3469;47.060;15.460;2022-10-16T09:04:27;26.90;;;22.70;;
6860;SDS011;3469;47.060;15.460;2022-10-16T09:08:06;26.17;;;22.67;;
6860;SDS011;3469;47.060;15.460;2022-10-16T09:10:54;25.90;;;22.87;;
6860;SDS011;3469;47.060;15.460;2022-10-16T09:13:36;25.43;;;22.60;;
6860;SDS011;3469;47.060;15.460;2022-10-16T09:16:19;29.00;;;24.03;;
6860;SDS011;3469;47.060;15.460;2022-10-16T09:19:09;24.90;;;21.17;;
6860;SDS011;3469;47.060;15.460;2022-10-16T09:22:35;26.23;;;22.37;;
6860;SDS011;3469;47.060;15.460;2022-10-16T09:32:32;24.70;;;21.00;;
6860;SDS011;3469;47.060;15.460;2022-10-16T09:35:00;25.23;;;19.97;;
6860;SDS011;3469;47.060;15.460;2022-10-16T09:44:30;22.83;;;19.77;;
6860;SDS011;3469;47.060;15.460;2022-10-16T09:47:04;24.27;;;20.70;;
6860;SDS011;3469;47.060;15.460;2022-10-16T09:49:34;22.90;;;20.50;;
6860;SDS011;3469;47.060;15.460;2022-10-16T09:52:03;24.03;;;21.43;;
6860;SDS011;3469;47.060;15.460;2022-10-16T09:54:31;21.50;;;19.40;;
6860;SDS011;3469;47.060;15.460;2022-10-16T09:57:10;21.17;;;18.97;;
6860;SDS011;3469;47.060;15.460;2022-10-16T09:59:45;23.30;;;20.83;;
6860;SDS011;3469;47.060;15.460;2022-10-16T10:02:14;21.10;;;17.83;;
6860;SDS011;3469;47.060;15.460;2022-10-16T10:04:46;22.03;;;18.77;;
6860;SDS011;3469;47.060;15.460;2022-10-16T10:07:17;21.50;;;19.23;;
6860;SDS011;3469;47.060;15.460;2022-10-16T10:09:48;21.67;;;18.80;;
6860;SDS011;3469;47.060;15.460;2022-10-16T10:12:19;20.97;;;18.77;;
6860;SDS011;3469;47.060;15.460;2022-10-16T10:14:53;21.70;;;19.40;;
6860;SDS011;3469;47.060;15.460;2022-10-16T10:17:23;22.33;;;19.93;;
6860;SDS011;3469;47.060;15.460;2022-10-16T10:19:53;20.13;;;18.00;;
6860;SDS011;3469;47.060;15.460;2022-10-16T10:22:24;19.33;;;17.40;;
6860;SDS011;3469;47.060;15.460;2022-10-16T10:24:56;20.57;;;18.37;;
6860;SDS011;3469;47.060;15.460;2022-10-16T10:27:28;21.73;;;17.80;;
6860;SDS011;3469;47.060;15.460;2022-10-16T10:30:01;21.63;;;18.73;;
6860;SDS011;3469;47.060;15.460;2022-10-16T10:32:32;19.83;;;17.80;;
6860;SDS011;3469;47.060;15.460;2022-10-16T10:35:11;19.10;;;16.70;;
6860;SDS011;3469;47.060;15.460;2022-10-16T10:37:51;20.67;;;18.43;;
6860;SDS011;3469;47.060;15.460;2022-10-16T10:40:34;19.87;;;17.97;;
6860;SDS011;3469;47.060;15.460;2022-10-16T10:43:12;19.10;;;16.70;;
6860;SDS011;3469;47.060;15.460;2022-10-16T10:45:47;18.73;;;16.63;;
6860;SDS011;3469;47.060;15.460;2022-10-16T10:48:19;20.90;;;18.80;;
6860;SDS011;3469;47.060;15.460;2022-10-16T10:50:53;18.50;;;16.17;;
6860;SDS011;3469;47.060;15.460;2022-10-16T10:53:29;16.80;;;15.17;;
6860;SDS011;3469;47.060;15.460;2022-10-16T10:56:08;18.57;;;16.67;;
6860;SDS011;3469;47.060;15.460;2022-10-16T10:58:57;18.27;;;16.37;;
6860;SDS011;3469;47.060;15.460;2022-10-16T11:01:31;19.17;;;17.37;;
6860;SDS011;3469;47.060;15.460;2022-10-16T11:04:20;19.40;;;16.80;;
6860;SDS011;3469;47.060;15.460;2022-10-16T11:07:04;18.13;;;16.33;;
6860;SDS011;3469;47.060;15.460;2022-10-16T11:09:34;19.90;;;17.90;;
6860;SDS011;3469;47.060;15.460;2022-10-16T11:12:05;17.50;;;15.80;;
6860;SDS011;3469;47.060;15.460;2022-10-16T11:14:38;19.40;;;15.83;;
6860;SDS011;3469;47.060;15.460;2022-10-16T11:17:10;17.10;;;15.30;;
6860;SDS011;3469;47.060;15.460;2022-10-16T11:19:42;15.73;;;13.50;;
6860;SDS011;3469;47.060;15.460;2022-10-16T11:22:15;16.07;;;14.33;;
6860;SDS011;3469;47.060;15.460;2022-10-16T11:24:48;15.23;;;13.63;;
6860;SDS011;3469;47.060;15.460;2022-10-16T11:27:21;16.63;;;14.97;;
6860;SDS011;3469;47.060;15.460;2022-10-16T11:30:12;15.00;;;13.50;;
6860;SDS011;3469;47.060;15.460;2022-10-16T11:32:57;14.50;;;13.10;;
6860;SDS011;3469;47.060;15.460;2022-10-16T11:35:37;15.30;;;13.70;;
6860;SDS011;3469;47.060;15.460;2022-10-16T11:38:12;15.00;;;13.43;;
6860;SDS011;3469;47.060;15.460;2022-10-16T11:40:45;16.37;;;12.70;;
6860;SDS011;3469;47.060;15.460;2022-10-16T11:43:17;15.50;;;13.20;;
6860;SDS011;3469;47.060;15.460;2022-10-16T11:45:52;13.90;;;12.50;;
6860;SDS011;3469;47.060;15.460;2022-10-16T11:48:24;13.03;;;11.73;;
6860;SDS011;3469;47.060;15.460;2022-10-16T11:50:56;13.70;;;12.30;;
6860;SDS011;3469;47.060;15.460;2022-10-16T11:53:34;13.77;;;12.33;;
6860;SDS011;3469;47.060;15.460;2022-10-16T11:56:11;13.97;;;12.57;;
6860;SDS011;3469;47.060;15.460;2022-10-16T11:58:42;15.13;;;13.53;;
6860;SDS011;3469;47.060;15.460;2022-10-16T12:01:23;14.83;;;13.27;;
6860;SDS011;3469;47.060;15.460;2022-10-16T12:04:00;13.13;;;11.63;;
6860;SDS011;3469;47.060;15.460;2022-10-16T12:06:36;14.10;;;12.17;;
6860;SDS011;3469;47.060;15.460;2022-10-16T12:09:13;13.97;;;12.67;;
6860;SDS011;3469;47.060;15.460;2022-10-16T12:11:49;13.10;;;11.43;;
6860;SDS011;3469;47.060;15.460;2022-10-16T12:14:34;12.43;;;11.23;;
6860;SDS011;3469;47.060;15.460;2022-10-16T12:17:38;13.10;;;11.47;;
6860;SDS011;3469;47.060;15.460;2022-10-16T12:20:19;13.93;;;12.50;;
6860;SDS011;3469;47.060;15.460;2022-10-16T12:22:51;14.03;;;12.50;;
6860;SDS011;3469;47.060;15.460;2022-10-16T12:25:24;15.57;;;13.83;;
6860;SDS011;3469;47.060;15.460;2022-10-16T12:27:56;15.90;;;12.50;;
6860;SDS011;3469;47.060;15.460;2022-10-16T12:30:26;15.37;;;12.87;;
6860;SDS011;3469;47.060;15.460;2022-10-16T12:33:05;14.97;;;13.50;;
6860;SDS011;3469;47.060;15.460;2022-10-16T12:35:43;14.43;;;12.93;;
6860;SDS011;3469;47.060;15.460;2022-10-16T12:38:15;15.70;;;14.20;;
6860;SDS011;3469;47.060;15.460;2022-10-16T12:40:44;18.13;;;13.23;;
6860;SDS011;3469;47.060;15.460;2022-10-16T12:43:27;15.23;;;13.73;;
6860;SDS011;3469;47.060;15.460;2022-10-16T12:48:52;15.30;;;13.80;;
6860;SDS011;3469;47.060;15.460;2022-10-16T12:51:34;16.43;;;14.80;;
6860;SDS011;3469;47.060;15.460;2022-10-16T12:54:04;15.37;;;13.77;;
6860;SDS011;3469;47.060;15.460;2022-10-16T12:56:46;15.67;;;13.90;;
6860;SDS011;3469;47.060;15.460;2022-10-16T12:59:27;16.00;;;14.00;;
6860;SDS011;3469;47.060;15.460;2022-10-16T13:05:02;16.47;;;13.40;;
6860;SDS011;3469;47.060;15.460;2022-10-16T13:07:48;14.87;;;13.27;;
6860;SDS011;3469;47.060;15.460;2022-10-16T13:10:25;15.10;;;13.60;;
6860;SDS011;3469;47.060;15.460;2022-10-16T13:13:00;14.93;;;13.30;;
6860;SDS011;3469;47.060;15.460;2022-10-16T13:15:42;14.27;;;12.77;;
6860;SDS011;3469;47.060;15.460;2022-10-16T13:18:19;13.10;;;11.80;;
6860;SDS011;3469;47.060;15.460;2022-10-16T13:21:02;13.00;;;11.70;;
6860;SDS011;3469;47.060;15.460;2022-10-16T13:23:43;12.63;;;11.00;;
6860;SDS011;3469;47.060;15.460;2022-10-16T13:26:21;14.97;;;11.00;;
6860;SDS011;3469;47.060;15.460;2022-10-16T13:28:57;12.80;;;11.50;;
6860;SDS011;3469;47.060;15.460;2022-10-16T13:31:30;17.40;;;12.83;;
6860;SDS011;3469;47.060;15.460;2022-10-16T13:34:01;12.73;;;11.53;;
6860;SDS011;3469;47.060;15.460;2022-10-16T13:36:34;12.63;;;11.43;;
6860;SDS011;3469;47.060;15.460;2022-10-16T13:39:11;15.70;;;12.43;;
6860;SDS011;3469;47.060;15.460;2022-10-16T13:41:43;14.73;;;13.23;;
6860;SDS011;3469;47.060;15.460;2022-10-16T13:44:13;16.57;;;13.33;;
6860;SDS011;3469;47.060;15.460;2022-10-16T13:46:44;14.70;;;13.20;;
6860;SDS011;3469;47.060;15.460;2022-10-16T13:49:13;14.30;;;12.80;;
6860;SDS011;3469;47.060;15.460;2022-10-16T13:54:36;15.60;;;13.50;;
6860;SDS011;3469;47.060;15.460;2022-10-16T13:57:04;14.53;;;12.27;;
6860;SDS011;3469;47.060;15.460;2022-10-16T13:59:52;14.80;;;12.33;;
6860;SDS011;3469;47.060;15.460;2022-10-16T14:02:22;13.57;;;12.13;;
6860;SDS011;3469;47.060;15.460;2022-10-16T14:04:54;15.03;;;13.53;;
6860;SDS011;3469;47.060;15.460;2022-10-16T14:07:24;13.73;;;12.43;;
6860;SDS011;3469;47.060;15.460;2022-10-16T14:09:55;14.20;;;12.80;;
6860;SDS011;3469;47.060;15.460;2022-10-16T14:12:27;12.27;;;11.10;;
6860;SDS011;3469;47.060;15.460;2022-10-16T14:14:56;13.67;;;11.47;;
6860;SDS011;3469;47.060;15.460;2022-10-16T14:17:27;13.83;;;12.43;;
6860;SDS011;3469;47.060;15.460;2022-10-16T14:19:58;14.10;;;12.60;;
6860;SDS011;3469;47.060;15.460;2022-10-16T14:22:33;15.97;;;12.70;;
6860;SDS011;3469;47.060;15.460;2022-10-16T14:25:13;14.10;;;12.37;;
6860;SDS011;3469;47.060;15.460;2022-10-16T14:27:56;14.10;;;12.70;;
6860;SDS011;3469;47.060;15.460;2022-10-16T14:30:32;16.03;;;13.03;;
6860;SDS011;3469;47.060;15.460;2022-10-16T14:33:02;14.13;;;12.73;;
6860;SDS011;3469;47.060;15.460;2022-10-16T14:35:32;14.43;;;12.93;;
6860;SDS011;3469;47.060;15.460;2022-10-16T14:38:03;15.37;;;13.77;;
6860;SDS011;3469;47.060;15.460;2022-10-16T14:40:34;15.07;;;13.47;;
6860;SDS011;3469;47.060;15.460;2022-10-16T14:43:04;16.80;;;15.00;;
6860;SDS011;3469;47.060;15.460;2022-10-16T14:45:34;26.40;;;15.43;;
6860;SDS011;3469;47.060;15.460;2022-10-16T14:48:06;16.40;;;14.70;;
6860;SDS011;3469;47.060;15.460;2022-10-16T14:50:47;17.93;;;16.03;;
6860;SDS011;3469;47.060;15.460;2022-10-16T14:53:16;17.33;;;15.30;;
6860;SDS011;3469;47.060;15.460;2022-10-16T14:55:46;17.60;;;15.07;;
6860;SDS011;3469;47.060;15.460;2022-10-16T14:58:21;17.33;;;15.50;;
6860;SDS011;3469;47.060;15.460;2022-10-16T15:00:50;17.73;;;15.83;;
6860;SDS011;3469;47.060;15.460;2022-10-16T15:03:18;18.83;;;16.87;;
6860;SDS011;3469;47.060;15.460;2022-10-16T15:05:46;24.00;;;17.77;;
6860;SDS011;3469;47.060;15.460;2022-10-16T15:08:15;24.37;;;20.50;;
6860;SDS011;3469;47.060;15.460;2022-10-16T15:10:50;24.23;;;18.77;;
6860;SDS011;3469;47.060;15.460;2022-10-16T15:13:19;21.97;;;18.50;;
6860;SDS011;3469;47.060;15.460;2022-10-16T15:15:47;23.67;;;19.80;;
6860;SDS011;3469;47.060;15.460;2022-10-16T15:18:17;20.03;;;17.93;;
6860;SDS011;3469;47.060;15.460;2022-10-16T15:20:47;22.23;;;18.83;;
6860;SDS011;3469;47.060;15.460;2022-10-16T15:23:18;21.47;;;17.97;;
6860;SDS011;3469;47.060;15.460;2022-10-16T15:25:47;20.43;;;18.23;;
6860;SDS011;3469;47.060;15.460;2022-10-16T15:28:19;23.50;;;19.50;;
6860;SDS011;3469;47.060;15.460;2022-10-16T15:30:51;25.10;;;20.40;;
6860;SDS011;3469;47.060;15.460;2022-10-16T15:33:20;25.60;;;19.93;;
6860;SDS011;3469;47.060;15.460;2022-10-16T15:35:50;26.60;;;21.87;;
6860;SDS011;3469;47.060;15.460;2022-10-16T15:38:20;25.33;;;22.47;;
6860;SDS011;3469;47.060;15.460;2022-10-16T15:40:49;25.03;;;20.43;;
6860;SDS011;3469;47.060;15.460;2022-10-16T15:43:19;25.40;;;20.20;;
6860;SDS011;3469;47.060;15.460;2022-10-16T15:45:51;24.00;;;20.00;;
6860;SDS011;3469;47.060;15.460;2022-10-16T15:48:26;24.83;;;20.83;;
6860;SDS011;3469;47.060;15.460;2022-10-16T15:50:56;27.60;;;22.60;;
6860;SDS011;3469;47.060;15.460;2022-10-16T15:53:24;24.47;;;20.87;;
6860;SDS011;3469;47.060;15.460;2022-10-16T15:55:52;25.80;;;20.60;;
6860;SDS011;3469;47.060;15.460;2022-10-16T15:58:22;23.90;;;21.30;;
6860;SDS011;3469;47.060;15.460;2022-10-16T16:00:54;27.10;;;21.13;;
6860;SDS011;3469;47.060;15.460;2022-10-16T16:03:23;25.50;;;21.10;;
6860;SDS011;3469;47.060;15.460;2022-10-16T16:05:52;26.87;;;21.50;;
6860;SDS011;3469;47.060;15.460;2022-10-16T16:08:21;31.50;;;22.73;;